Data for 01/07/2008

Time Sea-Level Adjusted Pressure Absolute Pressure Temperature Relative Humidity Dew Point   
(mb) (inHg) (mb) (inHg) (C) (F) (%) (C) (F)
00:05 1006 29.71 836 24.69 -5.7 21.8 64 -11.5 11.3
00:10 1006 29.71 836 24.69 -5.8 21.6 63 -11.7 10.9
00:15 1006 29.71 836 24.69 -5.8 21.6 64 -11.5 11.3
00:20 1006 29.71 836 24.69 -6.2 20.8 66 -11.6 11.2
00:25 1007 29.74 836 24.69 -6.7 19.9 72 -11 12.3
00:30 1007 29.74 836 24.69 -6.7 19.9 71 -11.2 11.9
00:35 1007 29.74 836 24.69 -6.6 20.2 69 -11.3 11.7
00:40 1007 29.74 836 24.69 -6.7 19.9 70 -11.4 11.5
00:45 1007 29.74 836 24.69 -6.8 19.7 70 -11.5 11.4
00:50 1007 29.74 836 24.69 -6.8 19.7 71 -11.3 11.6
00:55 1007 29.74 836 24.69 -6.8 19.8 70 -11.4 11.5
01:00 1007 29.74 836 24.69 -6.7 19.9 71 -11.2 11.9
01:05 1007 29.74 836 24.69 -6.9 19.5 71 -11.3 11.7
01:10 1007 29.74 836 24.69 -7.1 19.2 72 -11.4 11.5
01:15 1007 29.74 836 24.69 -7.1 19.2 71 -11.5 11.3
01:20 1007 29.74 836 24.69 -7.2 19 71 -11.6 11.1
01:25 1007 29.74 836 24.69 -7.2 19.1 70 -11.7 10.9
01:30 1007 29.74 836 24.69 -7.1 19.3 70 -11.6 11.1
01:35 1007 29.74 836 24.69 -7.1 19.2 70 -11.7 11
01:40 1007 29.74 836 24.69 -7.2 19.1 71 -11.5 11.3
01:45 1007 29.74 836 24.69 -7.5 18.5 73 -11.6 11.1
01:50 1007 29.74 836 24.69 -7.2 19 71 -11.7 11
01:55 1007 29.74 836 24.69 -7.5 18.5 73 -11.5 11.4
02:00 1007 29.74 836 24.69 -8 17.6 74 -11.8 10.7
02:05 1007 29.74 836 24.69 -8.1 17.5 74 -11.9 10.6
02:10 1007 29.74 836 24.69 -7.9 17.8 73 -12 10.4
02:15 1007 29.74 836 24.69 -7.7 18.1 71 -12 10.3
02:20 1007 29.74 836 24.69 -7.6 18.4 70 -12.1 10.2
02:25 1007 29.74 836 24.69 -7.2 19.1 67 -12.2 10
02:30 1007 29.74 836 24.69 -7 19.4 68 -11.9 10.5
02:35 1007 29.74 837 24.72 -7.3 18.9 70 -11.9 10.5
02:40 1007 29.74 837 24.72 -7.7 18.2 70 -12.2 10.1
02:45 1007 29.74 837 24.72 -7.7 18.1 70 -12.3 9.8
02:50 1007 29.74 837 24.72 -7.6 18.3 69 -12.4 9.7
02:55 1007 29.74 837 24.72 -7.4 18.8 68 -12.2 10
03:00 1007 29.74 837 24.72 -7.3 19 68 -12.2 10
03:05 1007 29.74 836 24.69 -7.4 18.6 68 -12.3 9.8
03:10 1007 29.74 836 24.69 -7.4 18.7 67 -12.6 9.4
03:15 1007 29.74 836 24.69 -7.1 19.2 66 -12.5 9.5
03:20 1007 29.74 836 24.69 -7 19.4 66 -12.4 9.7
03:25 1007 29.74 836 24.69 -7.1 19.3 66 -12.4 9.7
03:30 1007 29.74 836 24.69 -7.2 19 66 -12.5 9.6
03:35 1007 29.74 836 24.69 -7.2 19 65 -12.6 9.2
03:40 1007 29.74 837 24.72 -7.4 18.7 67 -12.4 9.6
03:45 1007 29.74 837 24.72 -7.8 18.1 68 -12.7 9.1
03:50 1007 29.74 837 24.72 -7.7 18.2 67 -12.9 8.9
03:55 1007 29.74 837 24.72 -7.5 18.5 66 -12.7 9.1
04:00 1007 29.74 837 24.72 -7.5 18.4 66 -12.8 9
04:05 1007 29.74 837 24.72 -7.5 18.5 66 -12.7 9.1
04:10 1007 29.74 837 24.72 -7.5 18.5 67 -12.7 9.2
04:15 1007 29.74 837 24.72 -7.8 17.9 69 -12.6 9.3
04:20 1008 29.77 837 24.72 -8.4 16.9 71 -12.7 9.1
04:25 1008 29.77 837 24.72 -9 15.8 74 -12.8 8.9
04:30 1008 29.77 837 24.72 -9.2 15.4 74 -13 8.6
04:35 1007 29.74 837 24.72 -9 15.7 73 -13 8.6
04:40 1007 29.74 837 24.72 -8.7 16.3 72 -12.8 8.9
04:45 1008 29.77 837 24.72 -8.6 16.5 71 -12.9 8.8
04:50 1008 29.77 837 24.72 -8.5 16.8 70 -13 8.6
04:55 1008 29.77 837 24.72 -8.3 17 68 -13.2 8.2
05:00 1008 29.77 837 24.72 -8.3 17.2 68 -13.2 8.2
05:05 1008 29.77 837 24.72 -8.3 17.1 65 -13.7 7.4
05:10 1008 29.77 837 24.72 -8.4 16.9 63 -14.2 6.5
05:15 1008 29.77 837 24.72 -8.6 16.5 66 -13.9 7
05:20 1008 29.77 837 24.72 -9.1 15.6 66 -14.3 6.2
05:25 1008 29.77 837 24.72 -8.8 16.1 67 -14 6.9
05:30 1008 29.77 837 24.72 -8.8 16.2 67 -13.9 7
05:35 1008 29.77 837 24.72 -9 15.8 68 -13.9 7
05:40 1008 29.77 837 24.72 -9.5 14.9 71 -13.8 7.2
05:45 1008 29.77 837 24.72 -9.8 14.3 73 -13.8 7.1
05:50 1008 29.77 837 24.72 -9.9 14.1 73 -13.8 7.1
05:55 1008 29.77 837 24.72 -9.8 14.3 71 -14.2 6.5
06:00 1008 29.77 837 24.72 -10 14 70 -14.4 6.1
06:05 1008 29.77 837 24.72 -10 14 71 -14.3 6.3
06:10 1008 29.77 837 24.72 -9.7 14.5 70 -14.1 6.5
06:15 1008 29.77 837 24.72 -9.5 15 70 -13.9 6.9
06:20 1008 29.77 837 24.72 -9.2 15.4 69 -14 6.9
06:25 1008 29.77 837 24.72 -9.1 15.7 69 -13.8 7.2
06:30 1008 29.77 837 24.72 -9 15.7 69 -13.8 7.2
06:35 1008 29.77 837 24.72 -9.2 15.5 68 -14 6.8
06:40 1008 29.77 837 24.72 -9.8 14.5 70 -14.2 6.4
06:45 1008 29.77 837 24.72 -10 14 71 -14.4 6.2
06:50 1008 29.77 837 24.72 -9.9 14.2 71 -14.2 6.4
06:55 1008 29.77 837 24.72 -9.7 14.5 71 -14 6.8
07:00 1008 29.77 837 24.72 -9.5 14.9 69 -14.2 6.5
07:05 1008 29.77 837 24.72 -9.3 15.3 67 -14.3 6.2
07:10 1008 29.77 837 24.72 -9.1 15.6 66 -14.3 6.3
07:15 1008 29.77 837 24.72 -9.2 15.5 65 -14.5 5.8
07:20 1008 29.77 837 24.72 -9.4 15.1 67 -14.4 6
07:25 1008 29.77 837 24.72 -9.8 14.4 68 -14.6 5.7
07:30 1008 29.77 838 24.75 -9.9 14.2 69 -14.6 5.7
07:35 1008 29.77 838 24.75 -10 14.1 67 -14.9 5.1
07:40 1008 29.77 838 24.75 -10 13.9 68 -15 5.1
07:45 1008 29.77 838 24.75 -10 13.9 68 -14.8 5.3
07:50 1008 29.77 838 24.75 -9.9 14.1 66 -15.1 4.8
07:55 1009 29.8 838 24.75 -9.8 14.3 66 -15.1 4.8
08:00 1008 29.77 838 24.75 -9.8 14.3 66 -15.1 4.8
08:05 1008 29.77 838 24.75 -9.8 14.3 64 -15.4 4.4
08:10 1008 29.77 838 24.75 -9.9 14.2 66 -15.1 4.9
08:15 1008 29.77 838 24.75 -9.9 14.1 67 -15 5.1
08:20 1008 29.77 838 24.75 -9.7 14.5 68 -14.6 5.8
08:25 1008 29.77 838 24.75 -9.5 15 64 -15 5
08:30 1009 29.8 838 24.75 -9.6 14.7 63 -15.5 4.1
08:35 1009 29.8 838 24.75 -9.7 14.5 63 -15.5 4.1
08:40 1009 29.8 838 24.75 -10.1 13.9 64 -15.6 3.9
08:45 1009 29.8 838 24.75 -10.3 13.5 65 -15.7 3.7
08:50 1009 29.8 838 24.75 -10.3 13.5 64 -15.8 3.5
08:55 1009 29.8 838 24.75 -10.2 13.6 64 -15.8 3.5
09:00 1009 29.8 838 24.75 -10 14 63 -15.9 3.4
09:05 1009 29.8 838 24.75 -9.5 14.9 60 -16 3.2
09:10 1009 29.8 838 24.75 -9.1 15.7 58 -15.8 3.5
09:15 1009 29.8 838 24.75 -8.8 16.1 58 -15.7 3.8
09:20 1009 29.8 838 24.75 -8.5 16.6 57 -15.7 3.7
09:25 1009 29.8 838 24.75 -8.2 17.2 54 -15.9 3.4
09:30 1009 29.8 838 24.75 -7.8 18 54 -15.4 4.2
09:35 1009 29.8 838 24.75 -7.9 17.7 56 -15.2 4.6
09:40 1009 29.8 838 24.75 -8.4 16.9 57 -15.4 4.3
09:45 1009 29.8 838 24.75 -8.6 16.6 57 -15.5 4
09:50 1009 29.8 838 24.75 -8.6 16.6 58 -15.5 4
09:55 1009 29.8 838 24.75 -8.6 16.6 58 -15.4 4.3
10:00 1009 29.8 838 24.75 -8.6 16.6 59 -15.3 4.5
10:05 1009 29.8 838 24.75 -8.7 16.4 58 -15.4 4.2
10:10 1009 29.8 838 24.75 -8.7 16.3 59 -15.3 4.5
10:15 1009 29.8 838 24.75 -8.6 16.4 57 -15.6 3.9
10:20 1009 29.8 838 24.75 -8.5 16.8 57 -15.4 4.2
10:25 1009 29.8 838 24.75 -8.3 17.1 56 -15.5 4
10:30 1009 29.8 838 24.75 -8.2 17.2 56 -15.4 4.2
10:35 1009 29.8 838 24.75 -8 17.6 57 -15.2 4.7
10:40 1009 29.8 838 24.75 -7.6 18.3 55 -15.1 4.9
10:45 1009 29.8 838 24.75 -7.3 18.9 52 -15.6 4
10:50 1009 29.8 838 24.75 -6.9 19.6 53 -15 5
10:55 1009 29.8 838 24.75 -6.5 20.2 52 -15 5.1
11:00 1009 29.8 838 24.75 -6.7 20 52 -14.9 5.1
11:05 1009 29.8 838 24.75 -6.6 20.1 50 -15.3 4.5
11:10 1009 29.8 838 24.75 -6.5 20.4 50 -15.4 4.4
11:15 1009 29.8 838 24.75 -6.3 20.6 51 -14.9 5.2
11:20 1009 29.8 838 24.75 -6.3 20.7 51 -14.9 5.1
11:25 1009 29.8 838 24.75 -6 21.2 51 -14.7 5.6
11:30 1009 29.8 838 24.75 -5.4 22.2 48 -14.8 5.4
11:35 1009 29.8 838 24.75 -5.1 22.9 49 -14.3 6.3
11:40 1009 29.8 838 24.75 -5 23 50 -14 6.8
11:45 1009 29.8 838 24.75 -4.2 24.4 44 -14.8 5.4
11:50 1009 29.8 838 24.75 -3.3 26.1 42 -14.4 6.2
11:55 1009 29.8 838 24.75 -3 26.6 41 -14.4 6.1
12:00 1009 29.8 838 24.75 -3 26.5 43 -14 6.7
12:05 1009 29.8 838 24.75 -3.4 25.9 45 -13.7 7.4
12:10 1008 29.77 838 24.75 -3.5 25.6 46 -13.6 7.5
12:15 1008 29.77 838 24.75 -4.4 24.1 49 -13.6 7.6
12:20 1008 29.77 838 24.75 -4.5 23.9 50 -13.4 7.8
12:25 1008 29.77 838 24.75 -3.2 26.2 45 -13.5 7.6
12:30 1008 29.77 838 24.75 -3.4 25.9 47 -13.1 8.5
12:35 1008 29.77 838 24.75 -3.2 26.3 47 -13.1 8.5
12:40 1008 29.77 838 24.75 -3.8 25.2 47 -13.7 7.4
12:45 1008 29.77 838 24.75 -3.5 25.8 45 -13.7 7.4
12:50 1008 29.77 838 24.75 -4 24.8 48 -13.4 7.8
12:55 1008 29.77 838 24.75 -3.1 26.5 44 -13.8 7.1
13:00 1008 29.77 838 24.75 -1.8 28.8 39 -14.1 6.7
13:05 1008 29.77 838 24.75 -1.7 29 41 -13.2 8.2
13:10 1008 29.77 838 24.75 -2.3 27.8 42 -13.5 7.6
13:15 1008 29.77 838 24.75 -2 28.4 40 -13.7 7.3
13:20 1008 29.77 838 24.75 -1.2 29.9 39 -13.4 7.9
13:25 1008 29.77 838 24.75 -1.2 29.9 38 -13.9 7
13:30 1008 29.77 838 24.75 -1.3 29.6 40 -13.2 8.2
13:35 1008 29.77 838 24.75 -1.3 29.7 36 -14.5 5.9
13:40 1008 29.77 838 24.75 -1 30.2 36 -14.3 6.3
13:45 1008 29.77 838 24.75 -1.3 29.7 36 -14.4 6
13:50 1008 29.77 838 24.75 -0.9 30.3 36 -14.3 6.3
13:55 1008 29.77 838 24.75 -0.9 30.4 37 -13.8 7.2
14:00 1008 29.77 838 24.75 -0.6 31 37 -13.6 7.5
14:05 1008 29.77 838 24.75 -0.6 30.9 37 -13.7 7.3
14:10 1008 29.77 838 24.75 -0.7 30.7 38 -13.3 8
14:15 1008 29.77 838 24.75 -0.8 30.6 38 -13.4 7.9
14:20 1008 29.77 838 24.75 -1.4 29.4 44 -12.2 10
14:25 1008 29.77 838 24.75 -2.1 28.2 45 -12.4 9.6
14:30 1009 29.8 838 24.75 -2.6 27.4 48 -12.2 10
14:35 1009 29.8 838 24.75 -2.8 27 47 -12.5 9.4
14:40 1009 29.8 838 24.75 -2.8 26.9 48 -12.3 9.8
14:45 1009 29.8 838 24.75 -2.7 27.1 48 -12.3 9.8
14:50 1009 29.8 838 24.75 -2.6 27.4 48 -12.2 10.1
14:55 1009 29.8 838 24.75 -2.8 27 47 -12.7 9.1
15:00 1009 29.8 838 24.75 -3.3 26.1 49 -12.6 9.4
15:05 1009 29.8 838 24.75 -3.3 26.1 49 -12.7 9.2
15:10 1009 29.8 838 24.75 -3.1 26.4 45 -13.4 7.9
15:15 1009 29.8 838 24.75 -3.1 26.4 47 -12.9 8.7
15:20 1009 29.8 838 24.75 -3.1 26.4 48 -12.6 9.3
15:25 1009 29.8 839 24.78 -2.9 26.8 47 -12.8 9
15:30 1009 29.8 839 24.78 -3 26.7 48 -12.4 9.6
15:35 1009 29.8 839 24.78 -2.9 26.8 46 -12.9 8.8
15:40 1010 29.83 839 24.78 -2.7 27.1 44 -13.3 8.1
15:45 1010 29.83 839 24.78 -2.7 27.2 45 -13.1 8.4
15:50 1010 29.83 839 24.78 -2.5 27.5 43 -13.4 7.9
15:55 1010 29.83 839 24.78 -2.3 27.9 44 -13.1 8.4
16:00 1010 29.83 839 24.78 -2.2 28 43 -13.3 8
16:05 1010 29.83 839 24.78 -2.3 27.9 45 -12.7 9.2
16:10 1010 29.83 839 24.78 -2.5 27.5 48 -12.2 10.1
16:15 1010 29.83 839 24.78 -2.7 27.2 47 -12.5 9.6
16:20 1010 29.83 839 24.78 -2.6 27.4 45 -12.9 8.7
16:25 1010 29.83 839 24.78 -2.7 27.2 46 -12.7 9.1
16:30 1010 29.83 839 24.78 -2.7 27.2 47 -12.4 9.6
16:35 1010 29.83 839 24.78 -2.8 27 48 -12.3 9.9
16:40 1010 29.83 839 24.78 -3 26.6 49 -12.3 9.9
16:45 1010 29.83 839 24.78 -3 26.7 49 -12.2 10
16:50 1010 29.83 839 24.78 -3.1 26.4 49 -12.4 9.7
16:55 1010 29.83 839 24.78 -3.2 26.2 50 -12.1 10.2
17:00 1010 29.83 839 24.78 -3.3 26.1 51 -12.1 10.3
17:05 1010 29.83 839 24.78 -3.3 26 51 -12 10.5
17:10 1010 29.83 839 24.78 -3.3 26.1 52 -11.9 10.5
17:15 1010 29.83 840 24.81 -3.3 26.1 52 -11.7 10.9
17:20 1010 29.83 840 24.81 -3.3 26.1 52 -11.9 10.6
17:25 1010 29.83 840 24.81 -3.3 26.1 52 -11.9 10.6
17:30 1010 29.83 840 24.81 -3.4 26 51 -12 10.4
17:35 1011 29.85 840 24.81 -3.4 25.8 52 -12 10.4
17:40 1011 29.85 840 24.81 -3.4 25.9 52 -12 10.4
17:45 1011 29.85 840 24.81 -3.4 25.9 50 -12.4 9.6
17:50 1011 29.85 840 24.81 -3.5 25.7 50 -12.6 9.3
17:55 1011 29.85 840 24.81 -3.3 26.1 49 -12.6 9.4
18:00 1011 29.85 840 24.81 -3.2 26.3 48 -12.6 9.4
18:05 1011 29.85 840 24.81 -3.1 26.4 47 -12.8 8.9
18:10 1011 29.85 840 24.81 -3.4 25.9 53 -11.6 11.2
18:15 1011 29.85 840 24.81 -3.4 25.8 50 -12.5 9.6
18:20 1011 29.85 840 24.81 -3.2 26.2 50 -12.2 10
18:25 1011 29.85 840 24.81 -3.4 26 51 -12.1 10.2
18:30 1011 29.85 840 24.81 -3.5 25.7 50 -12.4 9.7
18:35 1011 29.85 840 24.81 -3.5 25.6 56 -11.2 11.8
18:40 1011 29.85 841 24.83 -3.4 25.9 52 -11.8 10.7
18:45 1011 29.85 841 24.83 -3 26.5 54 -11.2 11.8
18:50 1011 29.85 841 24.83 -2.7 27.1 54 -10.8 12.5
18:55 1012 29.88 841 24.83 -2.9 26.8 58 -10 14
19:00 1012 29.88 841 24.83 -3.8 25.1 58 -11 12.2
19:05 1012 29.88 841 24.83 -3.7 25.4 58 -10.7 12.7
19:10 1012 29.88 841 24.83 -3.4 25.9 56 -11.1 12.1
19:15 1012 29.88 841 24.83 -3.3 26 56 -10.8 12.5
19:20 1012 29.88 841 24.83 -3.4 26 58 -10.5 13
19:25 1012 29.88 841 24.83 -3.4 25.8 60 -10.2 13.6
19:30 1012 29.88 841 24.83 -3.4 25.9 60 -10.2 13.6
19:35 1012 29.88 841 24.83 -3.3 26 60 -10.1 13.8
19:40 1012 29.88 842 24.86 -3.3 26.1 58 -10.4 13.2
19:45 1012 29.88 842 24.86 -3.1 26.4 59 -10 14
19:50 1012 29.88 842 24.86 -3 26.6 59 -10 14.1
19:55 1013 29.91 842 24.86 -2.9 26.8 58 -10 14
20:00 1013 29.91 842 24.86 -2.9 26.8 58 -10 14.1
20:05 1013 29.91 842 24.86 -2.8 26.9 58 -10 13.9
20:10 1013 29.91 842 24.86 -2.8 26.9 58 -10 14
20:15 1013 29.91 842 24.86 -2.7 27.1 58 -9.9 14.2
20:20 1013 29.91 842 24.86 -2.7 27.2 58 -9.9 14.1
20:25 1013 29.91 842 24.86 -2.7 27.1 57 -10.1 13.9
20:30 1013 29.91 842 24.86 -2.9 26.8 60 -9.6 14.8
20:35 1013 29.91 842 24.86 -3.4 25.8 63 -9.5 14.9
20:40 1013 29.91 842 24.86 -3.6 25.6 64 -9.5 14.9
20:45 1013 29.91 842 24.86 -3.6 25.5 65 -9.4 15.1
20:50 1013 29.91 842 24.86 -3.8 25.2 65 -9.3 15.2
20:55 1013 29.91 842 24.86 -3.9 25 67 -9.2 15.4
21:00 1013 29.91 842 24.86 -4.1 24.7 68 -9.1 15.6
21:05 1013 29.91 842 24.86 -4.2 24.4 69 -9 15.8
21:10 1013 29.91 842 24.86 -4.3 24.2 71 -8.9 16.1
21:15 1013 29.91 842 24.86 -4.4 24.1 71 -8.8 16.1
21:20 1013 29.91 842 24.86 -4.4 24 72 -8.7 16.3
21:25 1013 29.91 842 24.86 -4.4 24 73 -8.6 16.5
21:30 1013 29.91 842 24.86 -4.5 24 72 -8.7 16.4
21:35 1013 29.91 842 24.86 -4.4 24 72 -8.7 16.3
21:40 1012 29.88 842 24.86 -4.5 24 72 -8.7 16.3
21:45 1012 29.88 842 24.86 -4.5 23.9 72 -8.8 16.2
21:50 1012 29.88 842 24.86 -4.5 23.9 73 -8.7 16.3
21:55 1012 29.88 842 24.86 -4.6 23.7 72 -8.8 16.1
22:00 1012 29.88 842 24.86 -4.5 23.9 72 -8.8 16.1
22:05 1012 29.88 842 24.86 -4.4 24 72 -8.8 16.2
22:10 1012 29.88 842 24.86 -4.5 23.9 72 -8.9 16
22:15 1012 29.88 842 24.86 -4.6 23.7 72 -9 15.9
22:20 1012 29.88 842 24.86 -4.8 23.4 72 -9 15.7
22:25 1013 29.91 842 24.86 -4.9 23.2 73 -9 15.8
22:30 1013 29.91 842 24.86 -4.9 23.1 73 -9 15.8
22:35 1013 29.91 842 24.86 -5 23 73 -9.1 15.6
22:40 1013 29.91 842 24.86 -5.1 22.8 73 -9.2 15.4
22:45 1013 29.91 842 24.86 -5.2 22.7 73 -9.2 15.4
22:50 1013 29.91 842 24.86 -5.1 22.8 71 -9.5 14.9
22:55 1013 29.91 842 24.86 -5 23 72 -9.2 15.4
23:00 1013 29.91 842 24.86 -5.1 22.8 73 -9.2 15.5
23:05 1013 29.91 843 24.89 -5.4 22.3 74 -9.3 15.3
23:10 1013 29.91 843 24.89 -5.4 22.3 75 -9.2 15.5
23:15 1013 29.91 843 24.89 -5.6 22 74 -9.4 15
23:20 1013 29.91 843 24.89 -5.8 21.5 76 -9.3 15.2
23:25 1013 29.91 843 24.89 -6.3 20.7 78 -9.4 15
23:30 1013 29.91 843 24.89 -6.9 19.6 81 -9.6 14.8
23:35 1014 29.94 843 24.89 -7.1 19.2 83 -9.6 14.7
23:40 1014 29.94 843 24.89 -7 19.4 80 -9.8 14.3
23:45 1014 29.94 843 24.89 -7.1 19.2 80 -9.9 14.1
23:50 1014 29.94 843 24.89 -7.3 19 77 -10.6 13
23:55 1014 29.94 843 24.89 -7.3 18.9 78 -10.5 13
24:00 1013 29.91 843 24.89 -7.3 18.9 78 -10.5 13